sensor_id;sensor_type;location;lat;lon;timestamp;temperature;humidity
3996;DHT22;2012;49.794;9.722;2024-02-28T00:02:04;6.00;99.90
3996;DHT22;2012;49.794;9.722;2024-02-28T00:04:31;5.90;99.90
3996;DHT22;2012;49.794;9.722;2024-02-28T00:06:58;5.70;99.90
3996;DHT22;2012;49.794;9.722;2024-02-28T00:09:26;5.60;99.90
3996;DHT22;2012;49.794;9.722;2024-02-28T00:11:53;5.50;99.90
3996;DHT22;2012;49.794;9.722;2024-02-28T00:14:20;5.40;99.90
3996;DHT22;2012;49.794;9.722;2024-02-28T00:16:47;5.40;99.90
3996;DHT22;2012;49.794;9.722;2024-02-28T00:19:15;5.30;99.90
3996;DHT22;2012;49.794;9.722;2024-02-28T00:21:43;5.30;99.90
3996;DHT22;2012;49.794;9.722;2024-02-28T00:24:10;5.30;99.90
3996;DHT22;2012;49.794;9.722;2024-02-28T00:26:41;5.40;99.90
3996;DHT22;2012;49.794;9.722;2024-02-28T00:29:11;5.30;99.90
3996;DHT22;2012;49.794;9.722;2024-02-28T00:31:38;5.20;99.90
3996;DHT22;2012;49.794;9.722;2024-02-28T00:34:05;5.20;99.90
3996;DHT22;2012;49.794;9.722;2024-02-28T00:36:35;5.20;99.90
3996;DHT22;2012;49.794;9.722;2024-02-28T00:39:17;5.30;99.90
3996;DHT22;2012;49.794;9.722;2024-02-28T00:41:44;5.30;99.90
3996;DHT22;2012;49.794;9.722;2024-02-28T00:44:11;5.40;99.90
3996;DHT22;2012;49.794;9.722;2024-02-28T00:46:39;5.50;99.90
3996;DHT22;2012;49.794;9.722;2024-02-28T00:49:06;5.50;99.90
3996;DHT22;2012;49.794;9.722;2024-02-28T00:51:33;5.50;99.90
3996;DHT22;2012;49.794;9.722;2024-02-28T00:54:00;5.40;99.90
3996;DHT22;2012;49.794;9.722;2024-02-28T00:56:27;5.50;99.90
3996;DHT22;2012;49.794;9.722;2024-02-28T00:58:54;5.50;99.90
3996;DHT22;2012;49.794;9.722;2024-02-28T01:01:21;5.50;99.90
3996;DHT22;2012;49.794;9.722;2024-02-28T01:03:48;5.60;99.90
3996;DHT22;2012;49.794;9.722;2024-02-28T01:06:15;5.50;99.90
3996;DHT22;2012;49.794;9.722;2024-02-28T01:08:43;5.60;99.90
3996;DHT22;2012;49.794;9.722;2024-02-28T01:11:11;5.60;99.90
3996;DHT22;2012;49.794;9.722;2024-02-28T01:13:38;5.70;99.90
3996;DHT22;2012;49.794;9.722;2024-02-28T01:16:05;5.80;99.90
3996;DHT22;2012;49.794;9.722;2024-02-28T01:18:32;5.70;99.90
3996;DHT22;2012;49.794;9.722;2024-02-28T01:20:59;5.70;99.90
3996;DHT22;2012;49.794;9.722;2024-02-28T01:23:26;5.70;99.90
3996;DHT22;2012;49.794;9.722;2024-02-28T01:25:53;5.70;99.90
3996;DHT22;2012;49.794;9.722;2024-02-28T01:28:20;5.70;99.90
3996;DHT22;2012;49.794;9.722;2024-02-28T01:30:48;5.70;99.90
3996;DHT22;2012;49.794;9.722;2024-02-28T01:33:15;5.60;99.90
3996;DHT22;2012;49.794;9.722;2024-02-28T01:35:42;5.60;99.90
3996;DHT22;2012;49.794;9.722;2024-02-28T01:38:09;5.60;99.90
3996;DHT22;2012;49.794;9.722;2024-02-28T01:40:36;5.70;99.90
3996;DHT22;2012;49.794;9.722;2024-02-28T01:43:07;5.70;99.90
3996;DHT22;2012;49.794;9.722;2024-02-28T01:45:34;5.60;99.90
3996;DHT22;2012;49.794;9.722;2024-02-28T01:48:01;5.60;99.90
3996;DHT22;2012;49.794;9.722;2024-02-28T01:50:32;5.60;99.90
3996;DHT22;2012;49.794;9.722;2024-02-28T01:53:00;5.50;99.90
3996;DHT22;2012;49.794;9.722;2024-02-28T01:55:28;5.60;99.90
3996;DHT22;2012;49.794;9.722;2024-02-28T01:57:55;5.80;99.90
3996;DHT22;2012;49.794;9.722;2024-02-28T02:00:24;5.90;99.90
3996;DHT22;2012;49.794;9.722;2024-02-28T02:02:51;5.90;99.90
3996;DHT22;2012;49.794;9.722;2024-02-28T02:05:18;5.90;99.90
3996;DHT22;2012;49.794;9.722;2024-02-28T02:07:49;5.90;99.90
3996;DHT22;2012;49.794;9.722;2024-02-28T02:10:16;6.00;99.90
3996;DHT22;2012;49.794;9.722;2024-02-28T02:12:43;5.90;99.90
3996;DHT22;2012;49.794;9.722;2024-02-28T02:15:10;6.00;99.90
3996;DHT22;2012;49.794;9.722;2024-02-28T02:17:37;6.00;99.90
3996;DHT22;2012;49.794;9.722;2024-02-28T02:20:05;6.00;99.90
3996;DHT22;2012;49.794;9.722;2024-02-28T02:22:37;5.90;99.90
3996;DHT22;2012;49.794;9.722;2024-02-28T02:25:08;5.90;99.90
3996;DHT22;2012;49.794;9.722;2024-02-28T02:27:35;6.00;99.90
3996;DHT22;2012;49.794;9.722;2024-02-28T02:30:02;6.00;99.90
3996;DHT22;2012;49.794;9.722;2024-02-28T02:32:30;6.10;99.90
3996;DHT22;2012;49.794;9.722;2024-02-28T02:34:56;6.10;99.90
3996;DHT22;2012;49.794;9.722;2024-02-28T02:37:23;6.00;99.90
3996;DHT22;2012;49.794;9.722;2024-02-28T02:39:51;6.00;99.90
3996;DHT22;2012;49.794;9.722;2024-02-28T02:42:19;6.00;99.90
3996;DHT22;2012;49.794;9.722;2024-02-28T02:44:46;6.00;99.90
3996;DHT22;2012;49.794;9.722;2024-02-28T02:47:13;6.10;99.90
3996;DHT22;2012;49.794;9.722;2024-02-28T02:49:39;6.20;99.90
3996;DHT22;2012;49.794;9.722;2024-02-28T02:52:06;6.20;99.90
3996;DHT22;2012;49.794;9.722;2024-02-28T02:54:33;6.10;99.90
3996;DHT22;2012;49.794;9.722;2024-02-28T02:57:00;6.10;99.90
3996;DHT22;2012;49.794;9.722;2024-02-28T02:59:27;6.00;99.90
3996;DHT22;2012;49.794;9.722;2024-02-28T03:01:54;6.10;99.90
3996;DHT22;2012;49.794;9.722;2024-02-28T03:04:21;6.10;99.90
3996;DHT22;2012;49.794;9.722;2024-02-28T03:06:48;6.20;99.90
3996;DHT22;2012;49.794;9.722;2024-02-28T03:09:15;6.10;99.90
3996;DHT22;2012;49.794;9.722;2024-02-28T03:11:42;6.20;99.90
3996;DHT22;2012;49.794;9.722;2024-02-28T03:14:09;6.10;99.90
3996;DHT22;2012;49.794;9.722;2024-02-28T03:16:40;6.00;99.90
3996;DHT22;2012;49.794;9.722;2024-02-28T03:19:07;5.90;99.90
3996;DHT22;2012;49.794;9.722;2024-02-28T03:21:34;5.90;99.90
3996;DHT22;2012;49.794;9.722;2024-02-28T03:24:01;5.80;99.90
3996;DHT22;2012;49.794;9.722;2024-02-28T03:26:28;5.80;99.90
3996;DHT22;2012;49.794;9.722;2024-02-28T03:28:55;5.90;99.90
3996;DHT22;2012;49.794;9.722;2024-02-28T03:31:22;6.00;99.90
3996;DHT22;2012;49.794;9.722;2024-02-28T03:33:49;5.90;99.90
3996;DHT22;2012;49.794;9.722;2024-02-28T03:36:17;5.90;99.90
3996;DHT22;2012;49.794;9.722;2024-02-28T03:38:49;6.00;99.90
3996;DHT22;2012;49.794;9.722;2024-02-28T03:41:16;6.00;99.90
3996;DHT22;2012;49.794;9.722;2024-02-28T03:43:43;5.90;99.90
3996;DHT22;2012;49.794;9.722;2024-02-28T03:46:10;5.90;99.90
3996;DHT22;2012;49.794;9.722;2024-02-28T03:48:37;6.00;99.90
3996;DHT22;2012;49.794;9.722;2024-02-28T03:51:04;5.90;99.90
3996;DHT22;2012;49.794;9.722;2024-02-28T03:53:31;5.80;99.90
3996;DHT22;2012;49.794;9.722;2024-02-28T03:55:58;5.80;99.90
3996;DHT22;2012;49.794;9.722;2024-02-28T03:58:25;5.90;99.90
3996;DHT22;2012;49.794;9.722;2024-02-28T04:00:52;6.00;99.90
3996;DHT22;2012;49.794;9.722;2024-02-28T04:03:19;6.00;99.90
3996;DHT22;2012;49.794;9.722;2024-02-28T04:05:46;6.00;99.90
3996;DHT22;2012;49.794;9.722;2024-02-28T04:08:13;5.90;99.90
3996;DHT22;2012;49.794;9.722;2024-02-28T04:10:40;5.90;99.90
3996;DHT22;2012;49.794;9.722;2024-02-28T04:13:07;5.80;99.90
3996;DHT22;2012;49.794;9.722;2024-02-28T04:15:34;5.80;99.90
3996;DHT22;2012;49.794;9.722;2024-02-28T04:18:01;5.80;99.90
3996;DHT22;2012;49.794;9.722;2024-02-28T04:20:28;5.80;99.90
3996;DHT22;2012;49.794;9.722;2024-02-28T04:22:55;5.80;99.90
3996;DHT22;2012;49.794;9.722;2024-02-28T04:25:22;5.70;99.90
3996;DHT22;2012;49.794;9.722;2024-02-28T04:27:49;5.90;99.90
3996;DHT22;2012;49.794;9.722;2024-02-28T04:30:16;5.80;99.90
3996;DHT22;2012;49.794;9.722;2024-02-28T04:32:43;5.80;99.90
3996;DHT22;2012;49.794;9.722;2024-02-28T04:35:10;5.80;99.90
3996;DHT22;2012;49.794;9.722;2024-02-28T04:37:37;5.90;99.90
3996;DHT22;2012;49.794;9.722;2024-02-28T04:40:05;5.90;99.90
3996;DHT22;2012;49.794;9.722;2024-02-28T04:42:33;5.90;99.90
3996;DHT22;2012;49.794;9.722;2024-02-28T04:45:00;5.90;99.90
3996;DHT22;2012;49.794;9.722;2024-02-28T04:47:27;5.80;99.90
3996;DHT22;2012;49.794;9.722;2024-02-28T04:50:05;5.80;99.90
3996;DHT22;2012;49.794;9.722;2024-02-28T04:52:33;5.70;99.90
3996;DHT22;2012;49.794;9.722;2024-02-28T04:55:00;5.80;99.90
3996;DHT22;2012;49.794;9.722;2024-02-28T04:57:28;5.90;99.90
3996;DHT22;2012;49.794;9.722;2024-02-28T04:59:55;5.90;99.90
3996;DHT22;2012;49.794;9.722;2024-02-28T05:02:22;5.80;99.90
3996;DHT22;2012;49.794;9.722;2024-02-28T05:04:49;5.90;99.90
3996;DHT22;2012;49.794;9.722;2024-02-28T05:07:16;5.90;99.90
3996;DHT22;2012;49.794;9.722;2024-02-28T05:09:42;5.90;99.90
3996;DHT22;2012;49.794;9.722;2024-02-28T05:12:10;5.80;99.90
3996;DHT22;2012;49.794;9.722;2024-02-28T05:14:38;5.80;99.90
3996;DHT22;2012;49.794;9.722;2024-02-28T05:17:05;5.90;99.90
3996;DHT22;2012;49.794;9.722;2024-02-28T05:19:32;5.90;99.90
3996;DHT22;2012;49.794;9.722;2024-02-28T05:21:59;5.80;99.90
3996;DHT22;2012;49.794;9.722;2024-02-28T05:24:28;6.00;99.90
3996;DHT22;2012;49.794;9.722;2024-02-28T05:26:55;6.00;99.90
3996;DHT22;2012;49.794;9.722;2024-02-28T05:29:22;5.90;99.90
3996;DHT22;2012;49.794;9.722;2024-02-28T05:31:49;5.80;99.90
3996;DHT22;2012;49.794;9.722;2024-02-28T05:34:16;5.90;99.90
3996;DHT22;2012;49.794;9.722;2024-02-28T05:36:43;5.90;99.90
3996;DHT22;2012;49.794;9.722;2024-02-28T05:39:10;5.80;99.90
3996;DHT22;2012;49.794;9.722;2024-02-28T05:41:37;5.80;99.90
3996;DHT22;2012;49.794;9.722;2024-02-28T05:44:04;5.90;99.90
3996;DHT22;2012;49.794;9.722;2024-02-28T05:46:31;5.90;99.90
3996;DHT22;2012;49.794;9.722;2024-02-28T05:48:59;5.90;99.90
3996;DHT22;2012;49.794;9.722;2024-02-28T05:51:26;5.90;99.90
3996;DHT22;2012;49.794;9.722;2024-02-28T05:53:53;5.80;99.90
3996;DHT22;2012;49.794;9.722;2024-02-28T05:56:20;5.90;99.90
3996;DHT22;2012;49.794;9.722;2024-02-28T05:58:48;5.90;99.90
3996;DHT22;2012;49.794;9.722;2024-02-28T06:01:16;5.90;99.90
3996;DHT22;2012;49.794;9.722;2024-02-28T06:03:50;5.90;99.90
3996;DHT22;2012;49.794;9.722;2024-02-28T06:06:17;6.00;99.90
3996;DHT22;2012;49.794;9.722;2024-02-28T06:08:45;5.90;99.90
3996;DHT22;2012;49.794;9.722;2024-02-28T06:11:12;5.90;99.90
3996;DHT22;2012;49.794;9.722;2024-02-28T06:13:42;6.00;99.90
3996;DHT22;2012;49.794;9.722;2024-02-28T06:16:15;6.00;99.90
3996;DHT22;2012;49.794;9.722;2024-02-28T06:18:44;6.10;99.90
3996;DHT22;2012;49.794;9.722;2024-02-28T06:21:13;6.00;99.90
3996;DHT22;2012;49.794;9.722;2024-02-28T06:23:41;6.10;99.90
3996;DHT22;2012;49.794;9.722;2024-02-28T06:26:08;5.90;99.90
3996;DHT22;2012;49.794;9.722;2024-02-28T06:28:42;5.90;99.90
3996;DHT22;2012;49.794;9.722;2024-02-28T06:31:16;5.90;99.90
3996;DHT22;2012;49.794;9.722;2024-02-28T06:33:46;5.90;99.90
3996;DHT22;2012;49.794;9.722;2024-02-28T06:36:13;5.90;99.90
3996;DHT22;2012;49.794;9.722;2024-02-28T06:38:41;6.00;99.90
3996;DHT22;2012;49.794;9.722;2024-02-28T06:41:08;6.00;99.90
3996;DHT22;2012;49.794;9.722;2024-02-28T06:43:35;6.00;99.90
3996;DHT22;2012;49.794;9.722;2024-02-28T06:46:02;6.00;99.90
3996;DHT22;2012;49.794;9.722;2024-02-28T06:48:30;5.90;99.90
3996;DHT22;2012;49.794;9.722;2024-02-28T06:50:57;5.90;99.90
3996;DHT22;2012;49.794;9.722;2024-02-28T06:53:25;5.90;99.90
3996;DHT22;2012;49.794;9.722;2024-02-28T06:55:53;5.90;99.90
3996;DHT22;2012;49.794;9.722;2024-02-28T06:58:20;5.90;99.90
3996;DHT22;2012;49.794;9.722;2024-02-28T07:00:48;6.00;99.90
3996;DHT22;2012;49.794;9.722;2024-02-28T07:03:20;6.00;99.90
3996;DHT22;2012;49.794;9.722;2024-02-28T07:05:47;6.00;99.90
3996;DHT22;2012;49.794;9.722;2024-02-28T07:08:14;6.00;99.90
3996;DHT22;2012;49.794;9.722;2024-02-28T07:10:41;6.00;99.90
3996;DHT22;2012;49.794;9.722;2024-02-28T07:13:10;6.10;99.90
3996;DHT22;2012;49.794;9.722;2024-02-28T07:15:37;6.10;99.90
3996;DHT22;2012;49.794;9.722;2024-02-28T07:18:07;6.10;99.90
3996;DHT22;2012;49.794;9.722;2024-02-28T07:20:34;6.10;99.90
3996;DHT22;2012;49.794;9.722;2024-02-28T07:23:01;6.10;99.90
3996;DHT22;2012;49.794;9.722;2024-02-28T07:25:28;6.10;99.90
3996;DHT22;2012;49.794;9.722;2024-02-28T07:27:57;6.10;99.90
3996;DHT22;2012;49.794;9.722;2024-02-28T07:30:26;6.10;99.90
3996;DHT22;2012;49.794;9.722;2024-02-28T07:32:53;6.00;99.90
3996;DHT22;2012;49.794;9.722;2024-02-28T07:35:20;6.00;99.90
3996;DHT22;2012;49.794;9.722;2024-02-28T07:37:48;6.00;99.90
3996;DHT22;2012;49.794;9.722;2024-02-28T07:40:15;6.00;99.90
3996;DHT22;2012;49.794;9.722;2024-02-28T07:42:42;6.00;99.90
3996;DHT22;2012;49.794;9.722;2024-02-28T07:45:09;5.90;99.90
3996;DHT22;2012;49.794;9.722;2024-02-28T07:47:37;6.00;99.90
3996;DHT22;2012;49.794;9.722;2024-02-28T07:50:04;6.10;99.90
3996;DHT22;2012;49.794;9.722;2024-02-28T07:52:32;6.10;99.90
3996;DHT22;2012;49.794;9.722;2024-02-28T07:55:01;6.10;99.90
3996;DHT22;2012;49.794;9.722;2024-02-28T07:57:29;6.10;99.90
3996;DHT22;2012;49.794;9.722;2024-02-28T07:59:56;6.20;99.90
3996;DHT22;2012;49.794;9.722;2024-02-28T08:02:22;6.30;99.90
3996;DHT22;2012;49.794;9.722;2024-02-28T08:04:49;6.30;99.90
3996;DHT22;2012;49.794;9.722;2024-02-28T08:07:17;6.30;99.90
3996;DHT22;2012;49.794;9.722;2024-02-28T08:09:44;6.20;99.90
3996;DHT22;2012;49.794;9.722;2024-02-28T08:12:11;6.20;99.90
3996;DHT22;2012;49.794;9.722;2024-02-28T08:14:40;6.20;99.90
3996;DHT22;2012;49.794;9.722;2024-02-28T08:17:07;6.20;99.90
3996;DHT22;2012;49.794;9.722;2024-02-28T08:19:34;6.30;99.90
3996;DHT22;2012;49.794;9.722;2024-02-28T08:22:02;6.30;99.90
3996;DHT22;2012;49.794;9.722;2024-02-28T08:24:29;6.30;99.90
3996;DHT22;2012;49.794;9.722;2024-02-28T08:26:56;6.30;99.90
3996;DHT22;2012;49.794;9.722;2024-02-28T08:29:23;6.40;99.90
3996;DHT22;2012;49.794;9.722;2024-02-28T08:31:51;6.50;99.90
3996;DHT22;2012;49.794;9.722;2024-02-28T08:34:18;6.60;99.90
3996;DHT22;2012;49.794;9.722;2024-02-28T08:36:45;6.80;99.90
3996;DHT22;2012;49.794;9.722;2024-02-28T08:39:12;7.00;99.90
3996;DHT22;2012;49.794;9.722;2024-02-28T08:41:39;6.90;99.90
3996;DHT22;2012;49.794;9.722;2024-02-28T08:44:06;7.10;99.90
3996;DHT22;2012;49.794;9.722;2024-02-28T08:46:32;7.30;99.90
3996;DHT22;2012;49.794;9.722;2024-02-28T08:48:59;7.40;99.90
3996;DHT22;2012;49.794;9.722;2024-02-28T08:51:27;7.30;99.90
3996;DHT22;2012;49.794;9.722;2024-02-28T08:53:54;7.40;99.90
3996;DHT22;2012;49.794;9.722;2024-02-28T08:56:22;7.40;99.90
3996;DHT22;2012;49.794;9.722;2024-02-28T08:58:49;7.40;99.90
3996;DHT22;2012;49.794;9.722;2024-02-28T09:01:16;7.20;99.90
3996;DHT22;2012;49.794;9.722;2024-02-28T09:03:44;7.20;99.90
3996;DHT22;2012;49.794;9.722;2024-02-28T09:06:11;7.10;99.90
3996;DHT22;2012;49.794;9.722;2024-02-28T09:08:38;7.10;99.90
3996;DHT22;2012;49.794;9.722;2024-02-28T09:11:05;7.30;99.90
3996;DHT22;2012;49.794;9.722;2024-02-28T09:13:32;7.40;99.90
3996;DHT22;2012;49.794;9.722;2024-02-28T09:15:59;7.30;99.90
3996;DHT22;2012;49.794;9.722;2024-02-28T09:18:26;7.20;99.90
3996;DHT22;2012;49.794;9.722;2024-02-28T09:20:53;7.40;99.90
3996;DHT22;2012;49.794;9.722;2024-02-28T09:23:20;7.70;99.90
3996;DHT22;2012;49.794;9.722;2024-02-28T09:25:49;7.50;99.90
3996;DHT22;2012;49.794;9.722;2024-02-28T09:28:16;7.60;99.90
3996;DHT22;2012;49.794;9.722;2024-02-28T09:30:43;7.60;99.90
3996;DHT22;2012;49.794;9.722;2024-02-28T09:33:18;7.60;99.90
3996;DHT22;2012;49.794;9.722;2024-02-28T09:35:46;7.90;99.90
3996;DHT22;2012;49.794;9.722;2024-02-28T09:38:13;8.00;99.90
3996;DHT22;2012;49.794;9.722;2024-02-28T09:40:41;8.40;99.90
3996;DHT22;2012;49.794;9.722;2024-02-28T09:43:24;8.50;99.90
3996;DHT22;2012;49.794;9.722;2024-02-28T09:46:05;8.30;99.90
3996;DHT22;2012;49.794;9.722;2024-02-28T09:48:33;8.00;99.90
3996;DHT22;2012;49.794;9.722;2024-02-28T09:51:00;7.80;99.90
3996;DHT22;2012;49.794;9.722;2024-02-28T09:53:27;7.80;99.90
3996;DHT22;2012;49.794;9.722;2024-02-28T09:55:54;8.00;99.90
3996;DHT22;2012;49.794;9.722;2024-02-28T09:58:21;8.10;99.90
3996;DHT22;2012;49.794;9.722;2024-02-28T10:00:48;8.20;99.90
3996;DHT22;2012;49.794;9.722;2024-02-28T10:03:19;8.40;99.90
3996;DHT22;2012;49.794;9.722;2024-02-28T10:05:46;8.60;99.90
3996;DHT22;2012;49.794;9.722;2024-02-28T10:08:14;8.60;99.90
3996;DHT22;2012;49.794;9.722;2024-02-28T10:10:48;8.80;99.90
3996;DHT22;2012;49.794;9.722;2024-02-28T10:13:16;8.80;99.90
3996;DHT22;2012;49.794;9.722;2024-02-28T10:15:43;8.80;99.90
3996;DHT22;2012;49.794;9.722;2024-02-28T10:18:11;8.60;99.90
3996;DHT22;2012;49.794;9.722;2024-02-28T10:20:38;8.60;99.90
3996;DHT22;2012;49.794;9.722;2024-02-28T10:23:06;8.50;99.90
3996;DHT22;2012;49.794;9.722;2024-02-28T10:25:33;8.50;99.90
3996;DHT22;2012;49.794;9.722;2024-02-28T10:28:14;8.70;99.90
3996;DHT22;2012;49.794;9.722;2024-02-28T10:30:42;9.00;99.90
3996;DHT22;2012;49.794;9.722;2024-02-28T10:33:14;9.00;99.90
3996;DHT22;2012;49.794;9.722;2024-02-28T10:35:42;9.20;99.90
3996;DHT22;2012;49.794;9.722;2024-02-28T10:38:13;9.50;99.90
3996;DHT22;2012;49.794;9.722;2024-02-28T10:40:41;9.40;99.90
3996;DHT22;2012;49.794;9.722;2024-02-28T10:43:09;9.50;99.90
3996;DHT22;2012;49.794;9.722;2024-02-28T10:45:37;9.60;99.90
3996;DHT22;2012;49.794;9.722;2024-02-28T10:48:27;10.00;99.90
3996;DHT22;2012;49.794;9.722;2024-02-28T10:50:54;10.00;99.90
3996;DHT22;2012;49.794;9.722;2024-02-28T10:53:31;9.80;99.90
3996;DHT22;2012;49.794;9.722;2024-02-28T10:56:03;10.10;99.90
3996;DHT22;2012;49.794;9.722;2024-02-28T10:58:36;9.90;99.90
3996;DHT22;2012;49.794;9.722;2024-02-28T11:01:04;9.80;99.90
3996;DHT22;2012;49.794;9.722;2024-02-28T11:03:32;10.10;99.90
3996;DHT22;2012;49.794;9.722;2024-02-28T11:06:00;10.30;99.90
3996;DHT22;2012;49.794;9.722;2024-02-28T11:08:29;10.50;99.90
3996;DHT22;2012;49.794;9.722;2024-02-28T11:11:04;10.70;99.90
3996;DHT22;2012;49.794;9.722;2024-02-28T11:13:31;10.90;99.90
3996;DHT22;2012;49.794;9.722;2024-02-28T11:16:08;10.50;99.90
3996;DHT22;2012;49.794;9.722;2024-02-28T11:18:35;10.60;99.90
3996;DHT22;2012;49.794;9.722;2024-02-28T11:21:02;10.70;99.90
3996;DHT22;2012;49.794;9.722;2024-02-28T11:23:37;10.90;99.90
3996;DHT22;2012;49.794;9.722;2024-02-28T11:26:04;10.70;99.90
3996;DHT22;2012;49.794;9.722;2024-02-28T11:28:31;10.90;99.90
3996;DHT22;2012;49.794;9.722;2024-02-28T11:30:58;10.90;99.90
3996;DHT22;2012;49.794;9.722;2024-02-28T11:33:25;11.40;99.90
3996;DHT22;2012;49.794;9.722;2024-02-28T11:35:56;11.50;99.90
3996;DHT22;2012;49.794;9.722;2024-02-28T11:38:27;11.30;99.90
3996;DHT22;2012;49.794;9.722;2024-02-28T11:40:54;11.10;99.90
3996;DHT22;2012;49.794;9.722;2024-02-28T11:43:24;10.50;99.90
3996;DHT22;2012;49.794;9.722;2024-02-28T11:45:53;11.30;99.90
3996;DHT22;2012;49.794;9.722;2024-02-28T11:48:22;11.00;99.90
3996;DHT22;2012;49.794;9.722;2024-02-28T11:50:50;10.90;99.90
3996;DHT22;2012;49.794;9.722;2024-02-28T11:53:18;11.50;99.90
3996;DHT22;2012;49.794;9.722;2024-02-28T11:55:45;11.80;99.90
3996;DHT22;2012;49.794;9.722;2024-02-28T11:58:14;11.40;99.90
3996;DHT22;2012;49.794;9.722;2024-02-28T12:00:49;12.00;99.90
3996;DHT22;2012;49.794;9.722;2024-02-28T12:03:25;12.40;99.90
3996;DHT22;2012;49.794;9.722;2024-02-28T12:05:55;11.90;99.90
3996;DHT22;2012;49.794;9.722;2024-02-28T12:08:22;12.10;99.90
3996;DHT22;2012;49.794;9.722;2024-02-28T12:10:53;11.70;99.90
3996;DHT22;2012;49.794;9.722;2024-02-28T12:13:22;11.90;99.90
3996;DHT22;2012;49.794;9.722;2024-02-28T12:15:50;12.50;99.90
3996;DHT22;2012;49.794;9.722;2024-02-28T12:18:17;12.60;99.90
3996;DHT22;2012;49.794;9.722;2024-02-28T12:20:44;12.90;99.90
3996;DHT22;2012;49.794;9.722;2024-02-28T12:23:12;12.80;99.90
3996;DHT22;2012;49.794;9.722;2024-02-28T12:25:39;12.40;99.90
3996;DHT22;2012;49.794;9.722;2024-02-28T12:28:06;13.20;99.40
3996;DHT22;2012;49.794;9.722;2024-02-28T12:30:41;13.40;99.50
3996;DHT22;2012;49.794;9.722;2024-02-28T12:33:12;13.00;97.00
3996;DHT22;2012;49.794;9.722;2024-02-28T12:35:39;13.00;97.30
3996;DHT22;2012;49.794;9.722;2024-02-28T12:38:06;13.70;96.10
3996;DHT22;2012;49.794;9.722;2024-02-28T12:40:32;13.80;96.50
3996;DHT22;2012;49.794;9.722;2024-02-28T12:42:59;13.40;95.40
3996;DHT22;2012;49.794;9.722;2024-02-28T12:45:26;13.20;95.40
3996;DHT22;2012;49.794;9.722;2024-02-28T12:47:53;13.10;96.60
3996;DHT22;2012;49.794;9.722;2024-02-28T12:50:23;13.10;97.00
3996;DHT22;2012;49.794;9.722;2024-02-28T12:52:51;13.00;95.60
3996;DHT22;2012;49.794;9.722;2024-02-28T12:55:20;13.00;96.90
3996;DHT22;2012;49.794;9.722;2024-02-28T12:57:48;14.00;93.50
3996;DHT22;2012;49.794;9.722;2024-02-28T13:00:15;14.00;94.10
3996;DHT22;2012;49.794;9.722;2024-02-28T13:02:43;14.40;91.60
3996;DHT22;2012;49.794;9.722;2024-02-28T13:05:11;14.00;91.30
3996;DHT22;2012;49.794;9.722;2024-02-28T13:07:40;14.10;92.60
3996;DHT22;2012;49.794;9.722;2024-02-28T13:10:07;14.50;91.70
3996;DHT22;2012;49.794;9.722;2024-02-28T13:12:35;14.50;90.60
3996;DHT22;2012;49.794;9.722;2024-02-28T13:15:02;14.20;90.80
3996;DHT22;2012;49.794;9.722;2024-02-28T13:17:30;14.20;90.30
3996;DHT22;2012;49.794;9.722;2024-02-28T13:19:57;13.80;88.70
3996;DHT22;2012;49.794;9.722;2024-02-28T13:22:24;14.10;90.10
3996;DHT22;2012;49.794;9.722;2024-02-28T13:24:51;14.60;87.30
3996;DHT22;2012;49.794;9.722;2024-02-28T13:27:18;14.70;84.60
3996;DHT22;2012;49.794;9.722;2024-02-28T13:29:45;14.50;83.20
3996;DHT22;2012;49.794;9.722;2024-02-28T13:32:12;14.10;84.50
3996;DHT22;2012;49.794;9.722;2024-02-28T13:34:39;14.00;83.20
3996;DHT22;2012;49.794;9.722;2024-02-28T13:37:06;14.70;83.60
3996;DHT22;2012;49.794;9.722;2024-02-28T13:39:33;14.40;82.40
3996;DHT22;2012;49.794;9.722;2024-02-28T13:42:01;14.50;82.10
3996;DHT22;2012;49.794;9.722;2024-02-28T13:44:32;14.40;79.90
3996;DHT22;2012;49.794;9.722;2024-02-28T13:46:59;14.50;79.20
3996;DHT22;2012;49.794;9.722;2024-02-28T13:49:26;14.50;82.70
3996;DHT22;2012;49.794;9.722;2024-02-28T13:51:53;14.90;81.70
3996;DHT22;2012;49.794;9.722;2024-02-28T13:54:20;14.70;78.20
3996;DHT22;2012;49.794;9.722;2024-02-28T13:56:47;15.20;80.60
3996;DHT22;2012;49.794;9.722;2024-02-28T13:59:14;15.30;77.50
3996;DHT22;2012;49.794;9.722;2024-02-28T14:01:41;15.30;77.40
3996;DHT22;2012;49.794;9.722;2024-02-28T14:04:08;15.10;76.40
3996;DHT22;2012;49.794;9.722;2024-02-28T14:06:35;15.50;75.90
3996;DHT22;2012;49.794;9.722;2024-02-28T14:09:02;15.40;75.40
3996;DHT22;2012;49.794;9.722;2024-02-28T14:11:31;15.40;73.90
3996;DHT22;2012;49.794;9.722;2024-02-28T14:13:58;15.20;75.00
3996;DHT22;2012;49.794;9.722;2024-02-28T14:16:25;15.20;73.70
3996;DHT22;2012;49.794;9.722;2024-02-28T14:18:52;15.50;72.80
3996;DHT22;2012;49.794;9.722;2024-02-28T14:21:19;15.80;70.70
3996;DHT22;2012;49.794;9.722;2024-02-28T14:23:47;15.60;70.80
3996;DHT22;2012;49.794;9.722;2024-02-28T14:26:15;15.50;70.30
3996;DHT22;2012;49.794;9.722;2024-02-28T14:28:41;15.80;69.60
3996;DHT22;2012;49.794;9.722;2024-02-28T14:31:09;15.90;67.90
3996;DHT22;2012;49.794;9.722;2024-02-28T14:33:36;15.80;67.40
3996;DHT22;2012;49.794;9.722;2024-02-28T14:36:03;15.70;68.40
3996;DHT22;2012;49.794;9.722;2024-02-28T14:38:33;15.50;68.10
3996;DHT22;2012;49.794;9.722;2024-02-28T14:41:00;15.60;69.10
3996;DHT22;2012;49.794;9.722;2024-02-28T14:43:27;15.70;67.00
3996;DHT22;2012;49.794;9.722;2024-02-28T14:45:56;15.50;67.50
3996;DHT22;2012;49.794;9.722;2024-02-28T14:48:23;15.50;66.80
3996;DHT22;2012;49.794;9.722;2024-02-28T14:50:50;15.50;66.90
3996;DHT22;2012;49.794;9.722;2024-02-28T14:53:18;15.40;66.60
3996;DHT22;2012;49.794;9.722;2024-02-28T14:55:47;15.10;67.30
3996;DHT22;2012;49.794;9.722;2024-02-28T14:58:14;15.10;68.60
3996;DHT22;2012;49.794;9.722;2024-02-28T15:00:41;15.00;67.20
3996;DHT22;2012;49.794;9.722;2024-02-28T15:03:08;14.90;67.70
3996;DHT22;2012;49.794;9.722;2024-02-28T15:05:35;14.70;67.40
3996;DHT22;2012;49.794;9.722;2024-02-28T15:08:03;14.80;67.90
3996;DHT22;2012;49.794;9.722;2024-02-28T15:10:30;14.50;67.60
3996;DHT22;2012;49.794;9.722;2024-02-28T15:12:56;14.40;68.40
3996;DHT22;2012;49.794;9.722;2024-02-28T15:15:24;14.00;68.50
3996;DHT22;2012;49.794;9.722;2024-02-28T15:17:50;14.00;69.70
3996;DHT22;2012;49.794;9.722;2024-02-28T15:20:17;14.10;70.10
3996;DHT22;2012;49.794;9.722;2024-02-28T15:22:44;14.20;71.00
3996;DHT22;2012;49.794;9.722;2024-02-28T15:25:12;13.80;73.20
3996;DHT22;2012;49.794;9.722;2024-02-28T15:27:39;13.80;73.20
3996;DHT22;2012;49.794;9.722;2024-02-28T15:30:07;13.70;74.00
3996;DHT22;2012;49.794;9.722;2024-02-28T15:32:34;13.70;74.70
3996;DHT22;2012;49.794;9.722;2024-02-28T15:35:01;13.70;73.80
3996;DHT22;2012;49.794;9.722;2024-02-28T15:37:28;13.80;72.10
3996;DHT22;2012;49.794;9.722;2024-02-28T15:39:55;13.60;71.40
3996;DHT22;2012;49.794;9.722;2024-02-28T15:42:22;13.60;70.30
3996;DHT22;2012;49.794;9.722;2024-02-28T15:44:49;13.50;69.60
3996;DHT22;2012;49.794;9.722;2024-02-28T15:47:17;13.60;70.70
3996;DHT22;2012;49.794;9.722;2024-02-28T15:49:44;13.60;72.60
3996;DHT22;2012;49.794;9.722;2024-02-28T15:52:11;13.40;72.50
3996;DHT22;2012;49.794;9.722;2024-02-28T15:54:38;13.30;73.90
3996;DHT22;2012;49.794;9.722;2024-02-28T15:57:05;13.20;75.50
3996;DHT22;2012;49.794;9.722;2024-02-28T15:59:33;13.10;75.70
3996;DHT22;2012;49.794;9.722;2024-02-28T16:02:01;13.10;77.20
3996;DHT22;2012;49.794;9.722;2024-02-28T16:04:28;13.10;78.30
3996;DHT22;2012;49.794;9.722;2024-02-28T16:06:55;13.00;81.70
3996;DHT22;2012;49.794;9.722;2024-02-28T16:09:22;12.80;80.80
3996;DHT22;2012;49.794;9.722;2024-02-28T16:11:49;12.70;87.30
3996;DHT22;2012;49.794;9.722;2024-02-28T16:14:16;12.40;89.10
3996;DHT22;2012;49.794;9.722;2024-02-28T16:16:43;12.20;92.30